Tiempo atmosférico en la estación meteorológica de Zumarraga, Gipuzkoa (420 m.)



Fecha
DESCASC
Temp. máxima en grados centígrados (hora)
DESCASC
Temp. mínima en grados centígrados (hora)
DESCASC
Temp. media en grados centígrados
DESCASC
Racha de viento máxima en m/sg (hora)
DESCASC
Velocidad máxima media en intervalos de 10 minutos(hora)
DESCASC
Precipitaciones diarias en mm
DESCASC
Precipitaciones de 00:00 a 06:00 en mm
DESCASC
Precipitaciones de 06:00 a 12:00 en mm
DESCASC
Precipitaciones de 12:00 a 18:00 en mm
DESCASC
Precipitaciones de 18:00 a 24:00 en mm
DESCASC
10-07-2020 18 (15:10) 13.8 (06:10) 15.9 5 (16:10) 2.78 (16:00) 1.5 0 0.1 0 1.4
09-07-2020 26.2 (14:30) 14.1 (07:20) 20.2 6.67 (17:10) 3.89 (10:10) 0 0 0 0 0
08-07-2020 27.1 (16:50) 10.7 (06:30) 18.9 6.11 (18:30) 3.61 (18:20) 0 0 0 0 0
07-07-2020 22.2 (17:20) 11.6 (06:50) 16.9 7.5 (17:40) 3.33 (17:20) 0 0 0 0 0
06-07-2020 18.8 (11:50) 12.3 (00:00) 15.5 6.94 (10:20) 3.33 (10:20) 1.9 0 0.3 1.6 0
05-07-2020 26.7 (15:10) 10.3 (00:00) 18.5 7.22 (17:20) 3.61 (17:30) 0 0 0 0 0
04-07-2020 25 (16:50) 7.2 (00:00) 16.1 5.83 (13:00) 2.78 (19:10) 0.1 0 0.1 0 0
03-07-2020 17.6 (18:00) 10.6 (23:59) 14.1 7.22 (13:10) 3.89 (13:10) 0.6 0.6 0 0 0
02-07-2020 16.6 (13:00) 11.9 (00:00) 14.3 8.06 (15:50) 4.72 (15:50) 2.9 0.4 0 0 2.5
01-07-2020 20.5 (16:00) 15.5 (00:00) 18 6.39 (01:30) 3.89 (01:40) 1.5 0 0 0 1.5
30-06-2020 27.3 (15:50) 10.9 (00:00) 19.1 6.11 (18:10) 2.78 (17:40) 0 0 0 0 0
29-06-2020 18.3 (17:00) 14.1 (00:00) 16.2 5.83 (15:10) 3.33 (06:00) 1.1 0.5 0.6 0 0
28-06-2020 25.1 (16:30) 15.2 (00:00) 20.2 9.72 (20:50) 4.17 (20:40) 0.1 0.1 0 0 0
27-06-2020 25.4 (15:20) 12.8 (00:00) 19.1 7.5 (12:50) 3.33 (12:50) 0.1 0.1 0 0 0
26-06-2020 18.4 (16:00) 14.4 (00:00) 16.4 6.11 (01:10) 3.33 (00:50) 0.1 0 0 0 0.1
25-06-2020 27.8 (12:40) 16.4 (00:00) 22.1 12.22 (16:10) 8.06 (16:10) 1.2 0 0 1 0.2
24-06-2020 31.7 (17:40) 17.8 (00:00) 24.8 11.39 (19:40) 5.28 (22:50) 0 0 0 0 0
23-06-2020 31.2 (17:40) 12.4 (00:00) 21.8 5.28 (13:50) 2.22 (15:40) 0 0 0 0 0
22-06-2020 24.6 (17:30) 13.3 (00:00) 19 5.83 (19:20) 2.5 (17:20) 0 0 0 0 0
21-06-2020 23.8 (15:30) 10.5 (00:00) 17.1 7.22 (15:30) 3.61 (19:50) 0 0 0 0 0
20-06-2020 23.6 (15:50) 10.6 (00:00) 17.1 7.78 (16:30) 3.33 (18:20) 0 0 0 0 0
19-06-2020 19.6 (13:40) 8.9 (00:00) 14.3 6.67 (15:40) 3.33 (15:30) 0.1 0 0 0.1 0
18-06-2020 17.5 (14:10) 10 (00:00) 13.8 5.83 (19:30) 3.33 (15:30) 0 0 0 0 0
17-06-2020 17.8 (15:30) 9.7 (00:00) 13.7 9.17 (15:40) 5.56 (15:40) 0 0 0 0 0
16-06-2020 18.9 (13:00) 10.8 (00:00) 14.8 10.28 (18:30) 5.56 (18:40) 6.2 0 0 5.9 0.3
15-06-2020 19.5 (15:10) 10.4 (00:00) 14.9 5.83 (18:30) 2.5 (20:40) 0 0 0 0 0

Gráficas

Temp. máximas Temp. mínimas Temp. medias Precipitaciones Rachas de viento máximas Velocidades máximas media en intervalos de 10 minutos

Datos horarios

Fecha y hora oficial Temperatura (ºC) Velocidad del viento (km/h) Dirección del viento Racha (km/h) Dirección de racha Precipitación (mm) Presión (hPa) Tendencia (hPa) Humedad (%)
2020-07-14 23:00:00 13.1 0 Calma 14 Oeste 0 971.6 1.3 79
2020-07-14 22:00:00 14.8 5 Oeste 18 Noroeste 0 971.1 1.3 64
2020-07-14 21:00:00 16.9 6 Noroeste 21 Norte 0 970.6 0.8 61
2020-07-14 20:00:00 18.2 10 Noroeste 22 Noroeste 0 970.3 0.3 55
2020-07-14 19:00:00 18.9 11 Norte 24 Norte 0 969.8 -0.4 53
2020-07-14 18:00:00 19 8 Nordeste 22 Norte 0 969.8 -0.3 57
2020-07-14 17:00:00 19.7 8 Norte 23 Nordeste 0 970 -0.7 56
2020-07-14 16:00:00 19.3 8 Norte 25 Noroeste 0 970.2 -0.6 58
2020-07-14 15:00:00 20.2 8 Nordeste 19 Noroeste 0 970.1 -1 52
2020-07-14 14:00:00 19.5 5 Norte 19 Noroeste 0 970.7 -0.7 52
2020-07-14 13:00:00 19.1 6 Noroeste 24 Noroeste 0 970.8 -0.7 53
2020-07-14 12:00:00 17.5 12 Oeste 22 Oeste 0 971.1 -0.3 60
2020-07-14 11:00:00 16.9 12 Oeste 24 Oeste 0 971.4 -0.2 66
2020-07-14 10:00:00 15.1 8 Oeste 18 Oeste 0 971.5 -0.2 84
2020-07-14 09:00:00 14.2 7 Oeste 14 Oeste 0 971.4 -0.6 96
2020-07-14 08:00:00 12.4 0 Calma 0 Calma 0 971.6 -0.4 99
2020-07-14 07:00:00 11.9 0 Calma 0 Calma 0 971.7 -0.7 99
2020-07-14 06:00:00 12.1 0 Calma 2 Oeste 0 972 -- 99
2020-07-14 05:00:00 11.2 0 Calma 3 Oeste 0 972 -- 99
2020-07-14 04:00:00 11.4 0 Calma 6 Sudoeste 0 972.4 -- 98
2020-07-14 03:00:00 12.7 0 Calma 10 Oeste 0 972.5 -- 98
2020-07-14 02:00:00 12.4 0 Calma 7 Sudoeste 0 973 -- 95
2020-07-14 01:00:00 13 0 Calma 8 Sudoeste 0 973.3 -- 92
2020-07-14 00:00:00 13.1 0 Calma 8 Sudoeste 0 973.4 -- 86
2020-07-13 23:00:00 14.9 0 Calma 8 Noroeste 0 973.7 -- 83
2020-07-13 22:00:00 17.1 2 Norte 12 Noroeste 0 973.3 0.4 73
2020-07-13 21:00:00 19.3 6 Noroeste 17 Norte 0 973.2 0.1 48
2020-07-13 20:00:00 20.7 11 Noroeste 23 Noroeste 0 973.1 -0.1 43
2020-07-13 19:00:00 21.7 12 Noroeste 29 Norte 0 972.9 -0.5 40
2020-07-13 18:00:00 21.8 11 Norte 28 Noroeste 0 973.1 -0.6 41
2020-07-13 17:00:00 22.3 5 Norte 23 Norte 0 973.2 -0.6 46
2020-07-13 16:00:00 21.9 8 Nordeste 24 Nordeste 0 973.4 -0.5 47
2020-07-13 15:00:00 21.6 8 Nordeste 22 Este 0 973.7 -0.5 46
2020-07-13 14:00:00 22 8 Nordeste 24 Este 0 973.8 -0.2 47
2020-07-13 13:00:00 21.9 4 Noroeste 18 Oeste 0 973.9 -0.2 56
2020-07-13 12:00:00 20.1 12 Oeste 21 Oeste 0 974.2 0.3 68
2020-07-13 11:00:00 18.8 9 Noroeste 20 Oeste 0 974 0.3 72
2020-07-13 10:00:00 16.8 14 Oeste 23 Oeste 0 974.1 0.8 84
2020-07-13 09:00:00 15.7 13 Oeste 19 Oeste 0 973.9 1.2 92
2020-07-13 08:00:00 15.2 11 Oeste 19 Oeste 0 973.7 1.2 95
2020-07-13 07:00:00 15 7 Oeste 16 Oeste 0 973.3 -- 97
2020-07-13 06:00:00 14.7 6 Oeste -- -- -- 972.7 0.1 97
2020-07-13 05:00:00 14.6 8 Oeste 16 Noroeste 0 972.5 -0.3 97
2020-07-13 04:00:00 14.2 6 Oeste 19 Oeste 0 972.7 -0.1 96
2020-07-13 03:00:00 14.2 5 Oeste 12 Oeste 0 972.6 -0.2 96
2020-07-13 02:00:00 14.7 2 Oeste 14 Oeste 0 972.8 0.1 94
2020-07-13 01:00:00 15.2 2 Oeste 8 Oeste 0 972.8 0.9 92
2020-07-13 00:00:00 16.4 5 Oeste 22 Oeste 0 972.8 1.4 89
2020-07-12 23:00:00 16.9 10 Oeste 20 Oeste 0 972.7 2.4 89
2020-07-12 22:00:00 17.6 10 Oeste 19 Oeste 0 971.9 1.8 88
2020-07-12 21:00:00 18.8 11 Oeste 23 Oeste 0 971.4 1.8 83
2020-07-12 20:00:00 19.7 10 Oeste 18 Noroeste 0 970.3 1 76
2020-07-12 19:00:00 21.1 5 Noroeste 21 Noroeste 0 970.1 1.7 70
2020-07-12 18:00:00 21.8 10 Noroeste 27 Noroeste 0 969.6 1 67
2020-07-12 17:00:00 21.8 9 Norte 29 Norte 0 969.3 0.7 73
2020-07-12 16:00:00 25.8 2 Sudeste 17 Este 0 968.4 -1.6 55
2020-07-12 15:00:00 24.8 2 Este 11 Sudeste 0 968.6 -- 63
2020-07-12 14:00:00 21.8 4 Nordeste 14 Este 0 968.6 -2 76
2020-07-12 13:00:00 18.3 6 Este 15 Este 0 970 -- 95
2020-07-12 12:00:00 16.1 6 Este 15 Este 0 970.9 -- 99
2020-07-12 11:00:00 14.8 2 Sudoeste 15 Este 0.2 970.6 -- 99
2020-07-12 10:00:00 14.1 3 Este 16 Este 0.4 971 0.7 99
2020-07-12 09:00:00 14.4 7 Este 23 Este 5.4 971.3 -- 99
2020-07-12 08:00:00 14.4 13 Oeste 30 Oeste 0 972.2 -- 99
2020-07-12 07:00:00 13.3 3 Oeste 23 Oeste 0 970.3 -- 99
2020-07-12 06:00:00 13.3 7 Oeste 24 Oeste 0.1 969.9 -- 99
2020-07-12 05:00:00 12.9 0 Calma 3 Oeste 0 968.8 -- 99
2020-07-12 04:00:00 13.3 0 Calma 5 Sudoeste 0.1 968.8 -- 96
2020-07-12 03:00:00 13 0 Calma 7 Sudoeste 0 969.6 -- 95
2020-07-12 02:00:00 13.3 0 Calma 8 Sudoeste 0 970 -- 94
2020-07-12 01:00:00 13.6 0 Calma 8 Oeste 0 970.5 -- 94
2020-07-12 00:00:00 14 3 Oeste 10 Oeste 0 970.9 -- 91
2020-07-11 23:00:00 15.7 0 Calma 8 Norte 0 971 -- 84
2020-07-11 22:00:00 16.7 0 Calma 17 Noroeste 0 970.6 -- 82
2020-07-11 21:00:00 17.4 5 Norte 19 Noroeste 0 970.4 -- 80
2020-07-11 20:00:00 17.9 5 Norte 23 Noroeste 0 970.5 -- 79
2020-07-11 19:00:00 18.5 7 Norte 21 Nordeste 0 970.4 -0.7 74
2020-07-11 18:00:00 20.2 8 Norte 21 Noroeste 0 970.6 -- 62
2020-07-11 17:00:00 20.7 10 Norte 22 Noroeste 0 970.8 -- 56
2020-07-11 16:00:00 19.9 9 Norte 24 Noroeste 0 971.1 -- 60
2020-07-11 15:00:00 20.9 6 Norte 22 Noroeste 0 971.6 -- 60
2020-07-11 14:00:00 20.5 4 Nordeste 18 Noroeste 0 971.9 -- 62
2020-07-11 13:00:00 19.4 5 Norte 21 Noroeste 0 971.9 -- 63
2020-07-11 12:00:00 17.9 5 Norte 18 Noroeste 0 972.2 -- 64
2020-07-11 11:00:00 17.4 5 Norte 15 Norte 0 972 -- 71
2020-07-11 10:00:00 16.9 4 Noroeste 15 Noroeste 0 972.2 -- 79
2020-07-11 09:00:00 14.8 0 Calma 5 Sudoeste 0 971.9 -- 99
2020-07-11 08:00:00 13.8 0 Calma 4 Sudoeste 0 972.1 -- 99
2020-07-11 07:00:00 13.6 0 Calma 7 Oeste 0 971.8 -- 99
2020-07-11 06:00:00 13.5 0 Calma 8 Oeste 0 971.7 -- 99
2020-07-11 05:00:00 13.6 2 Oeste 10 Oeste 0 971.6 -- 99
2020-07-11 04:00:00 13.8 4 Oeste 12 Oeste 0 971.8 -- 99
2020-07-11 03:00:00 13.8 3 Oeste 11 Noroeste 0 971.9 -- 99
2020-07-11 02:00:00 13.9 0 Calma 12 Oeste 0 972.2 0.3 99
2020-07-11 01:00:00 14.1 3 Oeste 11 Oeste 0 972.2 -- 99
2020-07-11 00:00:00 14.4 0 Calma 11 Oeste 0.7 972 -- 99
2020-07-10 23:00:00 14.7 2 Oeste 8 Oeste 0.2 971.9 -- 99
2020-07-10 22:00:00 15 0 Calma 8 Norte 0.3 971.2 -- 98
2020-07-10 21:00:00 15.2 4 Noroeste 10 Noroeste 0.2 971.1 -- 96
2020-07-10 20:00:00 16.1 4 Noroeste 16 Noroeste 0 970.8 -- 88
2020-07-10 19:00:00 15.9 9 Noroeste 16 Noroeste 0 970.7 -- 93
2020-07-10 18:00:00 16.5 5 Noroeste 17 Noroeste 0 970.4 -- 87
2020-07-10 17:00:00 17.1 6 Noroeste 18 Noroeste 0 970.4 -- 74
2020-07-10 16:00:00 17 10 Noroeste 18 Noroeste 0 970.5 -- 78
2020-07-10 15:00:00 17.6 5 Norte 17 Oeste 0 970.4 -- 75
2020-07-10 14:00:00 16.3 7 Noroeste 17 Noroeste 0 970.5 0 94
2020-07-10 13:00:00 16.3 2 Norte 9 Nordeste 0 970.6 -- 95
2020-07-10 12:00:00 16.3 0 Calma 6 Noroeste 0.1 970.7 -- 96
2020-07-10 11:00:00 15.9 0 Calma 11 Noroeste 0 970.5 0.7 94
2020-07-10 10:00:00 15.9 2 Noroeste 10 Noroeste 0 970.4 -- 95
2020-07-10 09:00:00 15.1 4 Oeste 11 Oeste 0 969.9 -- 99
2020-07-10 08:00:00 14.4 3 Oeste 10 Oeste 0 969.8 -- 99
2020-07-10 07:00:00 14.2 2 Oeste 7 Oeste 0 969.7 -- 99
2020-07-10 06:00:00 13.9 0 Calma 6 Oeste 0 969.7 -- 99
2020-07-10 05:00:00 14.7 0 Calma 3 Oeste 0 969.7 -- 99
2020-07-10 04:00:00 15.2 0 Calma 12 Oeste 0 969.6 -- 99
2020-07-10 03:00:00 15.9 5 Oeste 17 Oeste 0 970 -- 99
2020-07-10 02:00:00 16.6 3 Oeste 16 Oeste 0 970.4 -- 99
2020-07-10 01:00:00 16.8 4 Noroeste 13 Noroeste 0 970.6 -- 99
2020-07-10 00:00:00 17 2 Norte 15 Noroeste 0 970.1 -- 99
2020-07-09 23:00:00 17.4 2 Norte 14 Noroeste 0 969.8 -- 97
2020-07-09 22:00:00 17.8 7 Noroeste 18 Noroeste 0 969 -- 94
2020-07-09 21:00:00 18.6 8 Noroeste 16 Norte 0 968.9 -- 90
2020-07-09 20:00:00 19 7 Noroeste 18 Norte 0 969.3 -- 88
2020-07-09 19:00:00 20.6 8 Noroeste 21 Noroeste 0 968.7 -- 82
2020-07-09 18:00:00 22.5 9 Norte 24 Noroeste 0 968.4 -- 73
2020-07-09 17:00:00 23.2 11 Noroeste 23 Noroeste 0 968.3 -- 69
2020-07-09 16:00:00 25.1 10 Noroeste 24 Noroeste 0 968.5 -- 62
2020-07-09 15:00:00 25 8 Norte 18 Noroeste 0 968.7 -- 59
2020-07-09 14:00:00 25.6 3 Este 17 Oeste 0 968.9 -- 55
2020-07-09 13:00:00 23.6 8 Noroeste 15 Noroeste 0 969.1 -- 54
2020-07-09 12:00:00 22.3 2 Este 18 Este 0 969.2 -- 60
2020-07-09 11:00:00 20.1 5 Noroeste 21 Oeste 0 969.5 -- 71
2020-07-09 10:00:00 17.6 12 Oeste 23 Noroeste 0 969.2 -- 85
2020-07-09 09:00:00 17.5 12 Oeste 23 Oeste 0 968.7 -- 85
2020-07-09 08:00:00 14.9 9 Oeste 21 Oeste 0 968.5 -- 94
2020-07-09 07:00:00 14.5 0 Calma 0 Calma 0 968 -- 94
2020-07-09 06:00:00 14.6 0 Calma 4 Oeste 0 967.7 -- 94
2020-07-09 05:00:00 14.8 0 Calma 6 Sudoeste 0 967.6 -- 91
2020-07-09 04:00:00 15.6 0 Calma 11 Oeste 0 967.9 -- 88
2020-07-09 03:00:00 16.6 4 Oeste 15 Oeste 0 968.7 -- 84
2020-07-09 02:00:00 16.8 5 Oeste 13 Oeste 0 968.8 -- 83
2020-07-09 01:00:00 17.2 0 Calma 11 Noroeste 0 968.9 -- 76
2020-07-09 00:00:00 18.2 0 Calma 19 Noroeste 0 968.5 -- 72
2020-07-08 23:00:00 18.6 8 Oeste 21 Oeste 0 968.6 -- 69
2020-07-08 22:00:00 19.7 7 Oeste 21 Oeste 0 967.3 -- 65
2020-07-08 21:00:00 21.6 6 Noroeste 14 Noroeste 0 966.9 -- 61
2020-07-08 20:00:00 23.1 3 Norte 16 Noroeste 0 966.3 -- 58
2020-07-08 19:00:00 24.3 9 Norte 22 Noroeste 0 966.2 -- 57
2020-07-08 18:00:00 25.6 11 Noroeste 21 Noroeste 0 965.7 -- 55
2020-07-08 17:00:00 26.1 7 Norte 17 Noroeste 0 966.4 -- 55
2020-07-08 16:00:00 26.4 7 Norte 18 Este 0 966.6 -- 54
2020-07-08 15:00:00 25.6 4 Sudeste 15 Este 0 966.9 -- 52
2020-07-08 14:00:00 25.4 4 Sudeste 13 Sudeste 0 967.4 -- 51
2020-07-08 13:00:00 23.4 3 Este 14 Nordeste 0 967.8 -- 55
2020-07-08 12:00:00 21.3 4 Este 13 Nordeste 0 968 -- 60
2020-07-08 11:00:00 19.4 4 Este 13 Este 0 968.4 -- 68
2020-07-08 10:00:00 17.2 4 Este 9 Este 0 968.3 -- 76
2020-07-08 09:00:00 15.2 0 Calma 3 Noroeste 0 968.1 -- 87
2020-07-08 08:00:00 12.4 0 Calma 0 Calma 0 968 -- 99
2020-07-08 07:00:00 10.9 0 Calma 0 Calma 0 968 -- 99
2020-07-08 06:00:00 10.9 0 Calma 6 Sudoeste 0 968 -- 99
2020-07-08 05:00:00 11.2 0 Calma 6 Oeste 0 968.1 -- 99
2020-07-08 04:00:00 11.7 0 Calma 5 Sudoeste 0 968.3 -- 98
2020-07-08 03:00:00 12.2 0 Calma 3 Sudoeste 0 968.9 -- 97
2020-07-08 02:00:00 12.6 0 Calma 0 Calma 0 969.2 -- 95
2020-07-08 01:00:00 13.7 0 Calma 2 Sudoeste 0 969.7 -- 91
2020-07-08 00:00:00 14.5 0 Calma 6 Norte 0 969.9 -- 86
2020-07-07 23:00:00 16 0 Calma 15 Noroeste 0 969.8 -- 79
2020-07-07 22:00:00 16.7 2 Noroeste 16 Noroeste 0 969.3 -- 78
2020-07-07 21:00:00 18 8 Noroeste 21 Noroeste 0 968.9 -- 73
2020-07-07 20:00:00 19.5 6 Norte 22 Norte 0 968.8 -0.3 67
2020-07-07 19:00:00 20.5 10 Norte 22 Noroeste 0 968.5 -1 62
2020-07-07 18:00:00 21.2 10 Norte 27 Noroeste 0 969 -0.8 60
2020-07-07 17:00:00 21.9 8 Norte 23 Noroeste 0 969.1 -1.3 57
2020-07-07 16:00:00 20.7 6 Nordeste 23 Norte 0 969.5 -1.3 58
2020-07-07 15:00:00 20.3 8 Norte 19 Noroeste 0 969.8 -1 59
2020-07-07 14:00:00 19.9 6 Norte 17 Norte 0 970.4 -0.8 60
2020-07-07 13:00:00 17.7 2 Norte 13 Norte 0 970.8 -0.5 66
2020-07-07 12:00:00 16.6 3 Este 11 Este 0 970.8 -0.7 70
2020-07-07 11:00:00 15.3 3 Este 9 Sudeste 0 971.2 0 73
2020-07-07 10:00:00 14.6 3 Noroeste 7 Noroeste 0 971.3 0.1 74
2020-07-07 09:00:00 13.2 0 Calma 5 Oeste 0 971.5 -0.3 88
2020-07-07 08:00:00 12.1 2 Oeste 6 Oeste 0 971.2 -0.9 91
2020-07-07 07:00:00 11.7 0 Calma 6 Oeste 0 971.2 -- 91
2020-07-07 06:00:00 11.8 0 Calma 5 Oeste 0 971.8 -- 89
2020-07-07 05:00:00 11.8 0 Calma 6 Sur 0 972.1 -- 89
2020-07-07 04:00:00 12 0 Calma 5 Sudoeste 0 972.4 -- 88
2020-07-07 03:00:00 12.3 0 Calma 5 Sudoeste 0 973 -- 86
2020-07-07 02:00:00 12.1 0 Calma 8 Oeste 0 973.4 -- 87
2020-07-07 01:00:00 12.1 0 Calma 3 Oeste 0 973.8 -- 88
2020-07-07 00:00:00 12.3 0 Calma 11 Noroeste 0 974 -- 85
2020-07-06 23:00:00 13.3 5 Noroeste 12 Noroeste 0 974.4 -- 85
2020-07-06 22:00:00 13.7 3 Noroeste 15 Noroeste 0 973.9 -- 82
2020-07-06 21:00:00 14.4 5 Norte 15 Nordeste 0 973.8 -- 86
2020-07-06 20:00:00 13.9 0 Calma 9 Norte 0 973.9 -- 96
2020-07-06 19:00:00 14.2 0 Calma 12 Nordeste 0 974.3 -- 96
2020-07-06 18:00:00 14.2 4 Nordeste 13 Norte 0 974.6 -- 96
2020-07-06 17:00:00 14.5 4 Nordeste 19 Este 0 974.7 -- 95
2020-07-06 16:00:00 14.5 6 Nordeste 18 Nordeste 0 974.7 -- 95
2020-07-06 15:00:00 15.1 6 Norte 22 Norte 0 974.8 -- 96
2020-07-06 14:00:00 15.4 5 Norte 16 Nordeste 0.3 974.6 -- 96
2020-07-06 13:00:00 16.2 6 Norte 20 Noroeste 1.3 974.3 -- 94
2020-07-06 12:00:00 18.4 8 Noroeste 23 Noroeste 0 973.8 -- 80
2020-07-06 11:00:00 17.1 9 Noroeste 25 Noroeste 0 973.8 -- 89
2020-07-06 10:00:00 16.7 7 Noroeste 22 Oeste 0 973.4 -- 95
2020-07-06 09:00:00 15.8 4 Oeste 18 Sudoeste 0.1 973.3 -- 99
2020-07-06 08:00:00 15.3 3 Oeste 10 Oeste 0.2 973 -- 99
2020-07-06 07:00:00 15 3 Noroeste 14 Noroeste 0 972.8 -- 99
2020-07-06 06:00:00 15 0 Calma 10 Oeste 0 972.7 -- 99
2020-07-06 05:00:00 15 4 Oeste 9 Noroeste 0 972.7 -- 99
2020-07-06 04:00:00 14.5 0 Calma 10 Oeste 0 972.8 -- 99
2020-07-06 03:00:00 15 4 Oeste 10 Oeste 0 973.3 -- 94
2020-07-06 02:00:00 14.8 0 Calma 6 Oeste 0 973.8 -- 92
2020-07-06 01:00:00 14.8 0 Calma 8 Sudoeste 0 974.1 -- 89
2020-07-06 00:00:00 15.7 2 Oeste 15 Noroeste 0 973.9 -- 84
2020-07-05 23:00:00 16.5 0 Calma 14 Noroeste 0 973.5 -- 72
2020-07-05 22:00:00 18.2 4 Noroeste 17 Noroeste 0 972.7 -- 61
2020-07-05 21:00:00 20.9 5 Norte 18 Noroeste 0 972.4 -- 49
2020-07-05 20:00:00 23.2 10 Noroeste 20 Noroeste 0 972.1 -- 46
2020-07-05 19:00:00 24.1 6 Norte 22 Noroeste 0 971.9 -- 44
2020-07-05 18:00:00 24.5 12 Noroeste 26 Noroeste 0 971.9 -- 42
2020-07-05 17:00:00 25.5 8 Norte 21 Norte 0 972 -- 43
2020-07-05 16:00:00 25.7 7 Norte 20 Noroeste 0 972 -- 42
2020-07-05 15:00:00 25.8 4 Norte 18 Noroeste 0 972.3 -- 40
2020-07-05 14:00:00 25 4 Norte 13 Noroeste 0 972.7 -- 40
2020-07-05 13:00:00 24.5 3 Noroeste 14 Noroeste 0 973 -- 38
2020-07-05 12:00:00 23.1 3 Sudeste 9 Este 0 973.2 -- 40
2020-07-05 11:00:00 20.2 4 Este 9 Este 0 973.4 -- 46
2020-07-05 10:00:00 18.2 4 Nordeste 7 Nordeste 0 973.8 -- 61
2020-07-05 09:00:00 16.6 0 Calma 7 Oeste 0 973.8 -- 62
2020-07-05 08:00:00 13.3 0 Calma 6 Oeste 0 973.5 -- 79
2020-07-05 07:00:00 10.4 0 Calma 0 Calma 0 973.6 -- 90
2020-07-05 06:00:00 10.6 0 Calma 7 Sudoeste 0 973.5 -- 90
2020-07-05 05:00:00 10.7 0 Calma 8 Sudoeste 0 973.4 -- 91
2020-07-05 04:00:00 11.1 2 Sudoeste 9 Sudoeste 0 973.7 -- 93
2020-07-05 03:00:00 12.5 0 Calma 7 Oeste 0 974.5 -- 88
2020-07-05 02:00:00 12.6 0 Calma 9 Sudoeste 0 974.9 -- 89
2020-07-05 01:00:00 13.4 0 Calma 7 Sudoeste 0 975.1 -- 88
2020-07-05 00:00:00 14.5 0 Calma 7 Sudoeste 0 975.3 -- 85
2020-07-04 23:00:00 16.1 0 Calma 4 Norte 0 974.9 -- 76
2020-07-04 22:00:00 18.2 0 Calma 12 Noroeste 0 974.3 -- 61
2020-07-04 21:00:00 21.5 6 Noroeste 16 Norte 0 974.1 -- 49
2020-07-04 20:00:00 22.3 10 Noroeste 18 Noroeste 0 973.6 -- 48
2020-07-04 19:00:00 22.6 9 Noroeste 19 Noroeste 0 973.5 -- 49
2020-07-04 18:00:00 23.6 6 Norte 21 Noroeste 0 973.4 -- 48
2020-07-04 17:00:00 24.7 8 Noroeste 18 Noroeste 0 973.7 -- 40
2020-07-04 16:00:00 23.3 6 Noroeste 18 Oeste 0 973.6 -- 43
2020-07-04 15:00:00 22.5 3 Noroeste 17 Oeste 0 974.1 -- 46
2020-07-04 14:00:00 20.8 5 Nordeste 14 Nordeste 0 974.5 -- 47
2020-07-04 13:00:00 20.3 3 Nordeste 21 Nordeste 0 974.8 -- 51
2020-07-04 12:00:00 19 0 Calma 11 Este 0 974.7 -- 55
2020-07-04 11:00:00 18 2 Este 9 Este 0 974.6 -- 58
2020-07-04 10:00:00 15.8 0 Calma 7 Noroeste 0 974.8 -- 70
2020-07-04 09:00:00 13.2 0 Calma 8 Oeste 0 974.4 -- 83
2020-07-04 08:00:00 9.6 0 Calma 8 Sudoeste 0.1 974.6 -- 99
2020-07-04 07:00:00 7.6 0 Calma 11 Sudoeste 0 974.3 -- 99
2020-07-04 06:00:00 7.4 0 Calma 8 Sudoeste 0 974.2 -- 99
2020-07-04 05:00:00 7.8 0 Calma 12 Sudoeste 0 974.1 -- 99
2020-07-04 04:00:00 7.9 0 Calma 9 Sudoeste 0 974.1 -- 99
2020-07-04 03:00:00 8.3 0 Calma 9 Sudoeste 0 974.8 -- 99
2020-07-04 02:00:00 8.5 0 Calma 9 Sudoeste 0 974.9 -- 98
2020-07-04 01:00:00 9.2 0 Calma 12 Sudoeste 0 975.1 -- 97
2020-07-04 00:00:00 10.6 0 Calma 6 Sudoeste 0 974.9 -- 94
2020-07-03 23:00:00 11.7 0 Calma 2 Sur 0 974.8 -- 88
2020-07-03 22:00:00 13.4 0 Calma 9 Norte 0 974.4 -- 73
2020-07-03 21:00:00 15.6 3 Norte 16 Nordeste 0 974.2 -- 61
2020-07-03 20:00:00 16.3 5 Nordeste 16 Noroeste 0 974 -- 58
2020-07-03 19:00:00 16.9 5 Norte 18 Noroeste 0 973.6 -- 57
2020-07-03 18:00:00 17.6 5 Noroeste 16 Norte 0 973.8 -- 59
2020-07-03 17:00:00 16.6 6 Norte 17 Norte 0 974.1 -- 60
2020-07-03 16:00:00 16.2 4 Norte 18 Noroeste 0 974.2 -- 67
2020-07-03 15:00:00 16.1 7 Noroeste 19 Oeste 0 974.4 -- 69
2020-07-03 14:00:00 14.7 6 Noroeste 26 Oeste 0 974.7 -- 74
2020-07-03 13:00:00 15.2 10 Noroeste 18 Oeste 0 974.6 -- 70
2020-07-03 12:00:00 14.8 7 Noroeste 18 Noroeste 0 974.4 -- 74
2020-07-03 11:00:00 14.4 10 Oeste 20 Noroeste 0 973.9 -- 76
2020-07-03 10:00:00 13.9 8 Noroeste 18 Oeste 0 973.8 -- 86
2020-07-03 09:00:00 13.3 9 Oeste 17 Oeste 0 973.7 -- 91
2020-07-03 08:00:00 12.2 3 Oeste 10 Oeste 0 973.6 -- 99
2020-07-03 07:00:00 11.2 4 Oeste 14 Oeste 0 973.3 -- 99
2020-07-03 06:00:00 11.4 3 Oeste 16 Noroeste 0 972.9 -- 99
2020-07-03 05:00:00 11.4 0 Calma 7 Noroeste 0.4 973 -- 99
2020-07-03 04:00:00 11.4 0 Calma 11 Oeste 0 973.1 -- 99
2020-07-03 03:00:00 11.7 0 Calma 16 Oeste 0.1 973.2 -- 99
2020-07-03 02:00:00 11.8 0 Calma 13 Norte 0 973.2 -- 99
2020-07-03 01:00:00 11.8 4 Noroeste 15 Oeste 0.1 973.3 -- 99
2020-07-03 00:00:00 12 6 Oeste 18 Sudoeste 0.2 972.9 -- 99
2020-07-02 23:00:00 12.5 0 Calma 4 Sudeste 1.9 972.9 -- 99
2020-07-02 22:00:00 12.8 0 Calma 10 Oeste 0.4 972.1 -- 97
2020-07-02 21:00:00 13.4 8 Noroeste 18 Noroeste 0 971.9 -- 91
2020-07-02 20:00:00 14.3 4 Noroeste 21 Noroeste 0 971.3 -- 84
2020-07-02 19:00:00 14.7 11 Noroeste 28 Noroeste 0 971 -- 76
2020-07-02 18:00:00 14.5 12 Noroeste 22 Noroeste 0 970.7 -- 82
2020-07-02 17:00:00 14.6 8 Noroeste 23 Norte 0 970.5 -- 83
2020-07-02 16:00:00 14.4 9 Noroeste 29 Noroeste 0 970.5 -- 83
2020-07-02 15:00:00 14.6 9 Noroeste 23 Noroeste 0 970.3 -- 86
2020-07-02 14:00:00 14.7 13 Noroeste 22 Norte 0 970 -- 87
2020-07-02 13:00:00 16.2 7 Noroeste 16 Noroeste 0 969.6 -- 87
2020-07-02 12:00:00 15.6 4 Noroeste 15 Oeste 0 969.3 -- 91
2020-07-02 11:00:00 14.8 8 Noroeste 14 Norte 0 968.9 -- 96
2020-07-02 10:00:00 14.4 3 Oeste 10 Noroeste 0 968.9 -- 99
2020-07-02 09:00:00 13.7 3 Oeste 7 Oeste 0 968.4 -- 99
2020-07-02 08:00:00 13.5 0 Calma 9 Oeste 0 967.9 -- 99
2020-07-02 07:00:00 13.4 0 Calma 6 Oeste 0 967.8 -- 99
2020-07-02 06:00:00 13.5 0 Calma 6 Noroeste 0.1 967.4 -- 99
2020-07-02 05:00:00 13.7 2 Noroeste 13 Oeste 0.1 967.4 -- 99
2020-07-02 04:00:00 13.9 5 Noroeste 10 Norte 0 967.5 -- 99
2020-07-02 03:00:00 14.1 0 Calma 6 Oeste 0 967.7 -- 99
2020-07-02 02:00:00 14.3 0 Calma 12 Noroeste 0 968.1 -- 99
2020-07-02 01:00:00 14.6 5 Noroeste 17 Oeste 0.2 968 -- 99
2020-07-02 00:00:00 15.9 3 Noroeste 11 Noroeste 1.5 967.8 -- 99
2020-07-01 23:00:00 -- 0 Calma 8 Oeste 0 -- -- --
2020-07-01 22:00:00 17.1 0 Calma 7 Oeste 0 967 -- 93
2020-07-01 21:00:00 17.4 0 Calma 12 Norte 0 966.6 -- 88
2020-07-01 20:00:00 17.9 3 Norte 15 Norte 0 966.5 -- 85
2020-07-01 19:00:00 18 4 Norte 19 Nordeste 0 966.8 -- 80
2020-07-01 18:00:00 19.2 3 Norte 18 Nordeste 0 966.3 -- 73
2020-07-01 17:00:00 19.7 3 Norte 17 Noroeste 0 965.9 -- 73
2020-07-01 16:00:00 20.2 5 Nordeste 17 Oeste 0 966 -- 71
2020-07-01 15:00:00 19.4 7 Oeste 15 Noroeste 0 965.9 -- 73
2020-07-01 14:00:00 19.3 6 Noroeste 17 Oeste 0 965.7 -- 73
2020-07-01 13:00:00 19.4 8 Oeste 14 Oeste 0 965.4 -- 69
2020-07-01 12:00:00 18.9 8 Oeste 18 Oeste 0 965.1 -- 62
2020-07-01 11:00:00 17.8 3 Oeste 8 Noroeste 0 964.6 -- 88
2020-07-01 10:00:00 17 4 Oeste 13 Oeste 0 964.6 -- 93
2020-07-01 09:00:00 16.9 5 Noroeste 14 Oeste 0 964.2 -- 96
2020-07-01 08:00:00 16 6 Oeste 13 Oeste 0 963.8 -- 99
2020-07-01 07:00:00 15.6 5 Oeste 13 Oeste 0 963.3 -- 99
2020-07-01 06:00:00 15.8 4 Oeste 14 Oeste 0 963.3 -- 99
2020-07-01 05:00:00 16.1 4 Oeste 12 Oeste 0 963 -- 98
2020-07-01 04:00:00 16.2 5 Oeste 13 Oeste 0 963.1 -- 97
2020-07-01 03:00:00 16.6 0 Calma 12 Noroeste 0 963.4 -- 97
2020-07-01 02:00:00 16.2 9 Oeste 23 Oeste 0 963.5 -- 97
2020-07-01 01:00:00 16.9 4 Noroeste 15 Oeste 0 963.9 -- 94
2020-07-01 00:00:00 17.5 7 Noroeste 21 Oeste 0 963.8 -- 90
2020-06-30 23:00:00 18.7 9 Oeste 21 Oeste 0 963.7 -- 85
2020-06-30 22:00:00 20.6 2 Norte 11 Norte 0 962.7 -- 74
2020-06-30 21:00:00 23.4 3 Noroeste 13 Noroeste 0 963.2 -- 63
2020-06-30 20:00:00 24.8 4 Norte 14 Norte 0 962.7 -- 58
2020-06-30 19:00:00 25.4 9 Noroeste 22 Noroeste 0 962.6 -- 55
2020-06-30 18:00:00 25.8 7 Norte 20 Noroeste 0 963 -- 54
2020-06-30 17:00:00 26.3 7 Norte 19 Norte 0 963.4 -- 54
2020-06-30 16:00:00 26.8 8 Norte 21 Nordeste 0 963.6 -- 51
2020-06-30 15:00:00 25.8 3 Nordeste 13 Nordeste 0 964.2 -- 49
2020-06-30 14:00:00 24.9 3 Sudeste 13 Este 0 964.7 -- 49
2020-06-30 13:00:00 23.3 3 Nordeste 12 Este 0 965.3 -- 34
2020-06-30 12:00:00 21.3 3 Nordeste 10 Nordeste 0 965.7 -- 47
2020-06-30 11:00:00 19.3 3 Este 9 Nordeste 0 966.3 -- 66
2020-06-30 10:00:00 15.1 4 Sudeste 9 Este 0 966.8 -- 99
2020-06-30 09:00:00 12.4 0 Calma 6 Este 0 967.1 -- 99
2020-06-30 08:00:00 11.9 0 Calma 0 Calma 0 967.2 -- 99
2020-06-30 07:00:00 11.4 0 Calma 5 Oeste 0 967.4 -- 99
2020-06-30 06:00:00 11 0 Calma 7 Sudoeste 0 967.1 -- 99
2020-06-30 05:00:00 11.8 0 Calma 6 Sudoeste 0 967.4 -- 99
2020-06-30 04:00:00 12.4 0 Calma 4 Sudoeste 0 968.1 -- 99
2020-06-30 03:00:00 12.2 0 Calma 0 Calma 0 968.7 -- 99
2020-06-30 02:00:00 13 0 Calma 0 Calma 0 969.1 -- 97
2020-06-30 01:00:00 13.9 0 Calma 3 Noroeste 0 969.4 -- 94
2020-06-30 00:00:00 14.4 0 Calma 4 Norte 0 969.5 -- 91
2020-06-29 23:00:00 14.6 0 Calma 9 Norte 0 969.5 -- 91
2020-06-29 22:00:00 15.1 2 Norte 10 Nordeste 0 969.3 -- 87
2020-06-29 21:00:00 15.8 3 Nordeste 13 Noroeste 0 969.3 -- 85
2020-06-29 20:00:00 16.7 4 Norte 15 Noroeste 0 969.4 -- 81
2020-06-29 19:00:00 17.1 6 Norte 19 Noroeste 0 969.6 -- 81
2020-06-29 18:00:00 17.4 6 Norte 21 Noroeste 0 970 -- 79
2020-06-29 17:00:00 18 7 Norte 17 Noroeste 0 970.3 -- 79
2020-06-29 16:00:00 17.2 5 Norte 21 Noroeste 0 970.6 -- 82
2020-06-29 15:00:00 17 6 Norte 17 Noroeste 0 970.9 -- 81
2020-06-29 14:00:00 17 8 Norte 17 Norte 0 971.3 -- 82
2020-06-29 13:00:00 16.7 7 Noroeste 18 Noroeste 0 971.2 -- 84
2020-06-29 12:00:00 16 6 Norte 14 Noroeste 0 971.4 -- 90
2020-06-29 11:00:00 15.8 3 Norte 12 Noroeste 0 971.1 -- 93
2020-06-29 10:00:00 15.1 4 Noroeste 12 Noroeste 0 971.1 -- 99
2020-06-29 09:00:00 14.3 5 Norte 13 Norte 0 971.2 -- 99
2020-06-29 08:00:00 14.5 0 Calma 13 Oeste 0.1 970.8 -- 99
2020-06-29 07:00:00 14.3 4 Oeste 18 Oeste 0.5 970.6 -- 99
2020-06-29 06:00:00 14.9 12 Oeste 21 Oeste 0.5 970.3 -- 99
2020-06-29 05:00:00 16.3 0 Calma 5 Oeste 0 970.1 -- 95
2020-06-29 04:00:00 16.4 0 Calma 11 Oeste 0 970.2 -- 94
2020-06-29 03:00:00 16.6 4 Oeste 12 Oeste 0 970.6 -- 93
2020-06-29 02:00:00 16.9 5 Oeste 15 Noroeste 0 970.7 -- 89
2020-06-29 01:00:00 17.4 4 Oeste 11 Oeste 0 971 -- 85
2020-06-29 00:00:00 17.8 5 Oeste 12 Noroeste 0 971.2 -- 84
2020-06-28 23:00:00 18.4 4 Norte 12 Noroeste 0 970.9 -- 79
2020-06-28 22:00:00 19 4 Noroeste 18 Oeste 0 970.6 -- 75
2020-06-28 21:00:00 19.6 10 Noroeste 35 Oeste 0 970.2 -- 70
2020-06-28 20:00:00 20.5 11 Noroeste 27 Noroeste 0 969.8 -- 67
2020-06-28 19:00:00 22 9 Norte 24 Noroeste 0 969.3 -- 66
2020-06-28 18:00:00 23.2 6 Norte 21 Noroeste 0 968.9 -- 59
2020-06-28 17:00:00 23.4 6 Norte 23 Noroeste 0 969.1 -- 57
2020-06-28 16:00:00 24.5 10 Oeste 22 Noroeste 0 969.1 -0.9 49
2020-06-28 15:00:00 23.4 15 Noroeste 25 Oeste 0 969.4 -- 52
2020-06-28 14:00:00 22.4 2 Sur 10 Sudeste 0 969.5 -- 70
2020-06-28 13:00:00 19.4 3 Sudeste 10 Sudeste 0 970 -- 82
2020-06-28 12:00:00 17.3 0 Calma 7 Oeste 0 970.5 -- 93
2020-06-28 11:00:00 16.9 0 Calma 5 Norte 0 970.2 -- 94
2020-06-28 10:00:00 16.3 0 Calma 5 Norte 0 970 -- 97
2020-06-28 09:00:00 15.6 0 Calma 11 Norte 0 970 -- 97
2020-06-28 08:00:00 15.4 0 Calma 6 Noroeste 0 969.6 -- 97
2020-06-28 07:00:00 15.5 0 Calma 13 Noroeste 0 969.1 -- 98
2020-06-28 06:00:00 15.4 4 Noroeste 10 Noroeste 0 969.2 -- 97
2020-06-28 05:00:00 15.5 5 Noroeste 11 Noroeste 0.1 969.2 -- 97
2020-06-28 04:00:00 15.9 0 Calma 7 Noroeste 0 969.3 -- 97
2020-06-28 03:00:00 16.3 3 Noroeste 12 Noroeste 0 969.4 -- 95
2020-06-28 02:00:00 16.7 4 Norte 17 Norte 0 969.5 -- 93
2020-06-28 01:00:00 17.2 0 Calma 10 Oeste 0 969.5 -- 88
2020-06-28 00:00:00 17.8 5 Oeste 14 Noroeste 0 969.3 -- 83
2020-06-27 23:00:00 19.2 6 Norte 13 Norte 0 968.8 -- 65
2020-06-27 22:00:00 19.7 4 Oeste 21 Noroeste 0 967.7 -- 59
2020-06-27 21:00:00 21.9 10 Noroeste 18 Noroeste 0 967 -- 51
2020-06-27 20:00:00 23.2 8 Noroeste 15 Noroeste 0 966.6 -- 51
2020-06-27 19:00:00 23.9 3 Nordeste 11 Noroeste 0 966.4 -- 49
2020-06-27 18:00:00 24.1 3 Norte 17 Noroeste 0 966.9 -- 49
2020-06-27 17:00:00 23.6 5 Norte 15 Noroeste 0 966.8 -- 53
2020-06-27 16:00:00 23.9 5 Norte 20 Noroeste 0 966.7 -- 52
2020-06-27 15:00:00 24.7 8 Noroeste 21 Oeste 0 966.5 -- 48
2020-06-27 14:00:00 24.4 3 Oeste 19 Noroeste 0 966.6 -- 48
2020-06-27 13:00:00 24.3 5 Oeste 27 Noroeste 0 966.6 -- 47
2020-06-27 12:00:00 22.8 4 Este 13 Este 0 966.6 -- 60
2020-06-27 11:00:00 20.6 2 Este 10 Este 0 966.4 -- 65
2020-06-27 10:00:00 18.7 2 Este 8 Este 0 966.3 -- 77
2020-06-27 09:00:00 15.2 3 Oeste 8 Oeste 0 966 -- 94
2020-06-27 08:00:00 13.3 0 Calma 6 Sudoeste 0 965.9 -- 99
2020-06-27 07:00:00 12.9 0 Calma 6 Sudoeste 0 965.8 -- 99
2020-06-27 06:00:00 13.7 0 Calma 6 Sudoeste 0 966 -- 99
2020-06-27 05:00:00 14.2 0 Calma 3 Sudoeste 0 965.8 -- 99
2020-06-27 04:00:00 14.5 0 Calma 3 Este 0 965.7 -- 99
2020-06-27 03:00:00 14.6 0 Calma 5 Sudeste 0.1 965.8 -- 99
2020-06-27 02:00:00 14.4 0 Calma 4 Este 0 966.1 -- 99
2020-06-27 01:00:00 14.4 0 Calma 8 Sudeste 0 965.7 -- 99
2020-06-27 00:00:00 14.5 0 Calma 12 Oeste 0 965.9 -- 99
2020-06-26 23:00:00 14.5 8 Oeste 15 Oeste 0 965.6 -- 99
2020-06-26 22:00:00 14.9 6 Oeste 13 Noroeste 0 965.5 -- 99
2020-06-26 21:00:00 15.2 0 Calma 10 Noroeste 0.1 965.2 -- 98
2020-06-26 20:00:00 15.5 3 Norte 10 Norte 0 964.7 -- 98
2020-06-26 19:00:00 16.1 3 Norte 12 Noroeste 0 964.3 -- 95
2020-06-26 18:00:00 15.9 5 Noroeste 20 Noroeste 0 964.7 -- 95
2020-06-26 17:00:00 17.2 8 Noroeste 17 Noroeste 0 964.9 -- 90
2020-06-26 16:00:00 18.1 6 Norte 14 Oeste 0 964.4 -- 86
2020-06-26 15:00:00 17.9 6 Oeste 14 Oeste 0 965 -- 89
2020-06-26 14:00:00 17.3 7 Oeste 14 Oeste 0 965 -- 89
2020-06-26 13:00:00 17.2 7 Noroeste 14 Norte 0 965.3 -- 88
2020-06-26 12:00:00 16.8 5 Norte 15 Noroeste 0 965.3 -- 93
2020-06-26 11:00:00 16.4 4 Noroeste 14 Noroeste 0 965.4 -- 97
2020-06-26 10:00:00 15.9 6 Oeste 12 Oeste 0 965.5 -- 99
2020-06-26 09:00:00 14.8 5 Oeste 14 Oeste 0 965.2 -- 99
2020-06-26 08:00:00 14.9 5 Oeste 13 Noroeste 0 965 -- 99
2020-06-26 07:00:00 14.8 5 Oeste 11 Oeste 0 964.9 -- 99
2020-06-26 06:00:00 15 0 Calma 5 Oeste 0 965 -- 99
2020-06-26 05:00:00 15.1 0 Calma 4 Noroeste 0 965.6 -- 99
2020-06-26 04:00:00 15.1 0 Calma 8 Noroeste 0 966.2 -- 99
2020-06-26 03:00:00 15 2 Oeste 11 Oeste 0 966.5 -- 99
2020-06-26 02:00:00 15 4 Oeste 22 Noroeste 0 966.5 -- 99
2020-06-26 01:00:00 15.4 11 Oeste 20 Oeste 0 966.4 -- 99
2020-06-26 00:00:00 16.6 0 Calma 4 Este 0 966.3 -- 99
2020-06-25 23:00:00 16.7 0 Calma 6 Este 0 966.4 -- 99
2020-06-25 22:00:00 17 0 Calma 8 Noroeste 0 966.1 -- 99
2020-06-25 21:00:00 17.1 4 Sudeste 9 Sudeste 0.1 966.2 -- 99
2020-06-25 20:00:00 17.3 5 Este 19 Este 0 966.2 -- 99
2020-06-25 19:00:00 17.3 6 Este 13 Este 0.1 965.1 -- 99
2020-06-25 18:00:00 17.4 7 Este 23 Este 1 965.6 -- 99
2020-06-25 17:00:00 18.5 0 Calma 44 Oeste 0 966.5 -- 97
2020-06-25 16:00:00 18.7 26 Oeste 43 Oeste 0 966 -- 93
2020-06-25 15:00:00 24.4 4 Este 16 Sudeste 0 965.1 -- 61
2020-06-25 14:00:00 25.7 3 Este 9 Este 0 965.8 -- 53
2020-06-25 13:00:00 26.6 4 Este 14 Este 0 966.1 -- 48
2020-06-25 12:00:00 26.4 6 Este 17 Este 0 966 -- 46
2020-06-25 11:00:00 25.1 4 Nordeste 12 Nordeste 0 966.1 -- 49
2020-06-25 10:00:00 24 3 Nordeste 9 Este 0 965.7 -- 57
2020-06-25 09:00:00 20.3 2 Oeste 28 Oeste 0 965.8 -- 76
2020-06-25 08:00:00 19.1 0 Calma 2 Sudoeste 0 965.4 -- 74
2020-06-25 07:00:00 18.3 0 Calma 8 Sudoeste 0 965.4 -- 79
2020-06-25 06:00:00 17.5 0 Calma 4 Sudeste 0 965.5 -- 96
2020-06-25 05:00:00 17.1 0 Calma 5 Sudoeste 0 965.7 -- 96
2020-06-25 04:00:00 17.4 0 Calma 7 Sudeste 0 966.7 -- 96
2020-06-25 03:00:00 17.5 0 Calma 6 Oeste 0 966.7 -- 96
2020-06-25 02:00:00 17.5 0 Calma 9 Este 0 967.2 -- 95
2020-06-25 01:00:00 18.3 0 Calma 4 Oeste 0 967.5 -- 93
2020-06-25 00:00:00 18.7 0 Calma 26 Noroeste 0 968.6 -- 93
2020-06-24 23:00:00 18 15 Oeste 36 Oeste 0 968.2 -- 96
2020-06-24 22:00:00 19.8 10 Noroeste 26 Oeste 0 966.7 -- 88
2020-06-24 21:00:00 25 3 Oeste 27 Oeste 0 965.7 -- 63
2020-06-24 20:00:00 26.6 15 Oeste 41 Oeste 0 964.8 -- 63
2020-06-24 19:00:00 31.1 3 Sudeste 17 Sudeste 0 964.1 -- 37
2020-06-24 18:00:00 31.5 9 Este 18 Este 0 964.3 -- 39
2020-06-24 17:00:00 30.8 5 Nordeste 13 Este 0 964.3 -- 43
2020-06-24 16:00:00 29.6 3 Sudeste 12 Sudeste 0 964.9 -- 44
2020-06-24 15:00:00 29.4 6 Sudeste 17 Este 0 965.2 -- 44
2020-06-24 14:00:00 29.9 7 Sudeste 19 Este 0 965.4 -- 41
2020-06-24 13:00:00 29.8 4 Este 19 Este 0 965.2 -- 41
2020-06-24 12:00:00 28.4 9 Este 25 Este 0 965.3 -- 46
2020-06-24 11:00:00 27.2 7 Este 18 Este 0 965.4 -- 47
2020-06-24 10:00:00 26 5 Este 14 Este 0 965.6 -- 50
2020-06-24 09:00:00 24.3 4 Este 15 Este 0 965.3 -- 55
2020-06-24 08:00:00 21.4 0 Calma 3 Oeste 0 965.3 -- 70
2020-06-24 07:00:00 19.5 0 Calma 2 Sudoeste 0 965 -- 73
2020-06-24 06:00:00 18.6 0 Calma 5 Sudoeste 0 965 -- 79
2020-06-24 05:00:00 18.5 0 Calma 6 Sudoeste 0 964.7 -- 81
2020-06-24 04:00:00 18.9 0 Calma 0 Calma 0 964.7 -- 88
2020-06-24 03:00:00 19.5 0 Calma 4 Oeste 0 965.2 -- 93
2020-06-24 02:00:00 19.9 0 Calma 3 Sudoeste 0 965.2 -- 93
2020-06-24 01:00:00 19.9 0 Calma 7 Sudoeste 0 965.3 -- 91
2020-06-24 00:00:00 20.3 0 Calma 5 Sur 0 965.7 -- 91
2020-06-23 23:00:00 22.2 0 Calma 4 Sudoeste 0 965.8 -- 82
2020-06-23 22:00:00 24.3 0 Calma 7 Norte 0 965.1 -- 67
2020-06-23 21:00:00 27.4 2 Norte 12 Norte 0 964.8 -- 56
2020-06-23 20:00:00 29.1 4 Norte -- -- -- 964.5 -- 51
2020-06-23 19:00:00 30.2 5 Nordeste 13 Nordeste 0 964.4 -- 47
2020-06-23 18:00:00 -- 8 Nordeste 12 Nordeste 0 -- -- --
2020-06-23 17:00:00 30.5 4 Este 15 Nordeste 0 965.1 -- 41
2020-06-23 16:00:00 29.6 7 Este 17 Este 0 965.6 -- 44
2020-06-23 15:00:00 28.6 5 Este 18 Este 0 966 -- 46
2020-06-23 14:00:00 27.1 5 Este 19 Nordeste 0 966.6 -- 44
2020-06-23 13:00:00 26.1 7 Este 15 Este 0 967.2 -- 54
2020-06-23 12:00:00 23.1 5 Nordeste 12 Este 0 967.5 -- 59
2020-06-23 11:00:00 20.6 3 Este 9 Este 0 967.9 -- 72
2020-06-23 10:00:00 16.8 4 Este 8 Este 0 968.6 -- 99
2020-06-23 09:00:00 13.7 3 Este 7 Este 0 969 -- 99
2020-06-23 08:00:00 13.1 0 Calma 5 Oeste 0 969.2 -- 99
2020-06-23 07:00:00 13.2 0 Calma 4 Sudoeste 0 969.1 -- 99
2020-06-23 06:00:00 13.5 0 Calma 0 Calma 0 969.1 -- 99
2020-06-23 05:00:00 13.1 0 Calma 0 Calma 0 969.4 -- 99
2020-06-23 04:00:00 13.2 0 Calma 4 Sudoeste 0 970.1 -- 99
2020-06-23 03:00:00 13 0 Calma 5 Oeste 0 970.8 -- 99
2020-06-23 02:00:00 13.4 0 Calma 3 Oeste 0 971.4 -- 97
2020-06-23 01:00:00 14.3 0 Calma 5 Oeste 0 971.7 -- 96
2020-06-23 00:00:00 15.1 0 Calma 3 Oeste 0 971.9 -- 93
2020-06-22 23:00:00 16.4 0 Calma 10 Norte 0 971.8 -- 86
2020-06-22 22:00:00 18.3 3 Noroeste 14 Noroeste 0 971.5 -- 73
2020-06-22 21:00:00 20.9 4 Norte 15 Noroeste 0 971.2 -- 60
2020-06-22 20:00:00 22.3 6 Norte 21 Noroeste 0 971.2 -- 49
2020-06-22 19:00:00 23.3 8 Norte 17 Noroeste 0 971.5 -- 49
2020-06-22 18:00:00 23.8 7 Norte 21 Noroeste 0 971.6 -- 46
2020-06-22 17:00:00 24.1 7 Norte 16 Noroeste 0 972.3 -- 51
2020-06-22 16:00:00 23.7 6 Norte 15 Noroeste 0 973.1 -- 53
2020-06-22 15:00:00 22.4 3 Este 17 Sudeste 0 973.9 -- 55
2020-06-22 14:00:00 21.7 2 Sudeste 14 Este 0 974.5 -- 55
2020-06-22 13:00:00 20.9 4 Sudeste 13 Sudeste 0 975 -- 58
2020-06-22 12:00:00 19.8 2 Nordeste 13 Este 0 975.4 -- 61
2020-06-22 11:00:00 18.4 3 Sudeste 9 Sudeste 0 975.8 -- 66
2020-06-22 10:00:00 15.5 0 Calma 6 Este 0 976.5 -- 90
2020-06-22 09:00:00 14.8 0 Calma 6 Noroeste 0 976.5 -- 97
2020-06-22 08:00:00 14.2 0 Calma 0 Calma 0 976.4 -- 97
2020-06-22 07:00:00 13.7 0 Calma 4 Oeste 0 976.1 -- 97
2020-06-22 06:00:00 13.7 0 Calma 5 Oeste 0 976.2 -- 96
2020-06-22 05:00:00 14.8 0 Calma 4 Oeste 0 976.4 -- 92
2020-06-22 04:00:00 14.6 0 Calma 5 Sudeste 0 977 -- 92
2020-06-22 03:00:00 14.9 0 Calma 6 Oeste 0 977.5 -- 91
2020-06-22 02:00:00 14.9 0 Calma 11 Noroeste 0 978 -- 89
2020-06-22 01:00:00 15.5 0 Calma 7 Oeste 0 978.3 -- 78
2020-06-22 00:00:00 15.4 0 Calma 6 Oeste 0 978.1 -- 78
2020-06-21 23:00:00 15.2 0 Calma 11 Noroeste 0 977.7 -- 74
2020-06-21 22:00:00 16.8 3 Noroeste 17 Noroeste 0 977.1 -- 63
2020-06-21 21:00:00 18.8 6 Noroeste 19 Noroeste 0 976.7 -- 54
2020-06-21 20:00:00 20.1 9 Noroeste 22 Noroeste 0 976.3 -- 52
2020-06-21 19:00:00 20.9 10 Norte 23 Norte 0 975.9 -- 52
2020-06-21 18:00:00 21.8 8 Norte 23 Norte 0 975.6 -- 51
2020-06-21 17:00:00 22.6 8 Nordeste 24 Nordeste 0 975.2 -- 49
2020-06-21 16:00:00 23 8 Nordeste 26 Noroeste 0 975 -- 47
2020-06-21 15:00:00 23.3 6 Norte 21 Noroeste 0 974.8 -- 46
2020-06-21 14:00:00 23 7 Norte 19 Noroeste 0 974.9 -- 45
2020-06-21 13:00:00 22.8 3 Norte 19 Noroeste 0 974.9 -- 43
2020-06-21 12:00:00 21.8 3 Noroeste 11 Noroeste 0 974.8 -- 51
2020-06-21 11:00:00 20 3 Nordeste 10 Este 0 974.6 -- 64
2020-06-21 10:00:00 17.8 4 Este 8 Este 0 974.7 -- 74
2020-06-21 09:00:00 15.6 2 Este 5 Este 0 974.5 -- 85
2020-06-21 08:00:00 12.7 0 Calma 0 Calma 0 974.2 -- 99
2020-06-21 07:00:00 10.9 0 Calma 2 Sudeste 0 973.7 -- 99
2020-06-21 06:00:00 11.1 0 Calma 3 Sudoeste 0 973.4 -- 99
2020-06-21 05:00:00 11.3 0 Calma 0 Calma 0 973.3 -- 99
2020-06-21 04:00:00 11.8 0 Calma 3 Sudoeste 0 973.4 -- 99
2020-06-21 03:00:00 11.9 0 Calma 3 Sudoeste 0 973.7 -- 98
2020-06-21 02:00:00 12.2 0 Calma 0 Calma 0 974.2 -- 96
2020-06-21 01:00:00 12.6 0 Calma 2 Oeste 0 974.2 -- 90
2020-06-21 00:00:00 13.7 0 Calma 5 Noroeste 0 974.2 -- 85
2020-06-20 23:00:00 15.3 2 Noroeste 11 Noroeste 0 973.7 -- 73
2020-06-20 22:00:00 16.6 0 Calma 14 Oeste 0 972.9 -- 63
2020-06-20 21:00:00 19.6 8 Oeste 18 Oeste 0 972.3 -- 60
2020-06-20 20:00:00 21.2 5 Norte 15 Noroeste 0 971.9 -- 61
2020-06-20 19:00:00 22 6 Norte 21 Noroeste 0 971.5 -- 58
2020-06-20 18:00:00 22.8 7 Noroeste 20 Noroeste 0 971.5 -- 55
2020-06-20 17:00:00 22.9 10 Noroeste 28 Noroeste 0 971.5 -- 55
2020-06-20 16:00:00 22.9 8 Noroeste 20 Norte 0 971.6 -- 53
2020-06-20 15:00:00 22.6 5 Este 17 Nordeste 0 971.9 -- 50
2020-06-20 14:00:00 21.6 4 Nordeste 13 Nordeste 0 972.1 -- 51
2020-06-20 13:00:00 20.5 2 Oeste 14 Nordeste 0 972.5 -- 52
2020-06-20 12:00:00 19 5 Este 10 Nordeste 0 972.5 -- 60
2020-06-20 11:00:00 17.3 3 Este 10 Este 0 972.7 -- 69
2020-06-20 10:00:00 13.7 0 Calma 5 Sudeste 0 972.9 -- 91
2020-06-20 09:00:00 11.7 0 Calma 5 Oeste 0 972.7 -- 99
2020-06-20 08:00:00 11.3 0 Calma 6 Oeste 0 972.5 -- 99
2020-06-20 07:00:00 11 0 Calma 6 Sudoeste 0 972.1 -- 99
2020-06-20 06:00:00 10.8 2 Sudoeste 7 Sudoeste 0 972.2 -- 99
2020-06-20 05:00:00 10.6 0 Calma 3 Sudoeste 0 972.4 -- 99
2020-06-20 04:00:00 11.5 0 Calma 0 Calma 0 972.1 -- 98
2020-06-20 03:00:00 11.3 0 Calma 0 Calma 0 972.3 -- 98
2020-06-20 02:00:00 11 0 Calma 0 Calma 0 972.6 -- 97
2020-06-20 01:00:00 11.9 0 Calma 0 Calma 0 972.9 -- 96
2020-06-20 00:00:00 13.1 0 Calma 13 Oeste 0 972.9 -- 91
2020-06-19 23:00:00 14.2 6 Oeste 14 Noroeste 0 972.6 -- 85
2020-06-19 22:00:00 14.8 6 Norte 14 Noroeste 0 971.5 -- 83
2020-06-19 21:00:00 15.8 5 Norte 19 Noroeste 0 970.8 -- 76
2020-06-19 20:00:00 16.3 11 Noroeste 18 Norte 0 970.3 -- 72
2020-06-19 19:00:00 17.3 8 Noroeste 19 Noroeste 0 970.1 -- 67
2020-06-19 18:00:00 18.4 7 Norte 21 Noroeste 0 969.8 -- 63
2020-06-19 17:00:00 19 5 Norte 19 Nordeste 0 969.7 -- 63
2020-06-19 16:00:00 18 5 Norte 24 Norte 0.1 969.5 -- 65
2020-06-19 15:00:00 18.3 7 Noroeste 21 Noroeste 0 969.5 -- 63
2020-06-19 14:00:00 18.6 8 Norte 20 Norte 0 969.4 -- 60
2020-06-19 13:00:00 18.7 6 Noroeste 14 Noroeste 0 969.3 -- 59
2020-06-19 12:00:00 16.6 3 Norte 12 Noroeste 0 969.3 -- 67
2020-06-19 11:00:00 16.4 3 Norte 9 Este 0 969.2 -- 70
2020-06-19 10:00:00 14 3 Nordeste 10 Nordeste 0 969 -- 81
2020-06-19 09:00:00 11.7 0 Calma 4 Norte 0 969.3 -- 99
2020-06-19 08:00:00 9.5 0 Calma 0 Calma 0 969.1 -- 99
2020-06-19 07:00:00 9.2 0 Calma 0 Calma 0 969 -- 99
2020-06-19 06:00:00 9.2 0 Calma 0 Calma 0 968.7 -- 99
2020-06-19 05:00:00 9.3 0 Calma 5 Sur 0 968.3 -- 99
2020-06-19 04:00:00 9.4 0 Calma 0 Calma 0 968.6 -- 99
2020-06-19 03:00:00 9.7 0 Calma 0 Calma 0 968.7 -- 99
2020-06-19 02:00:00 9.9 0 Calma 0 Calma 0 969.1 -- 97
2020-06-19 01:00:00 10.3 0 Calma 4 Oeste 0 969.1 -- 96
2020-06-19 00:00:00 10.8 0 Calma 3 Oeste 0 969.2 -- 93
2020-06-18 23:00:00 11.2 0 Calma 6 Noroeste 0 968.9 -- 88
2020-06-18 22:00:00 12.7 0 Calma 10 Norte 0 968.2 -- 80
2020-06-18 21:00:00 14.7 5 Noroeste 17 Norte 0 967.6 -- 70
2020-06-18 20:00:00 15.4 6 Norte 21 Noroeste 0 967.2 -- 68
2020-06-18 19:00:00 14.8 7 Norte 17 Norte 0 966.9 -- 71
2020-06-18 18:00:00 15.8 6 Norte 20 Noroeste 0 966.8 -- 67
2020-06-18 17:00:00 16.7 6 Norte 20 Nordeste 0 966.8 -- 67
2020-06-18 16:00:00 15.8 7 Norte 19 Noroeste 0 966.9 -- 68
2020-06-18 15:00:00 16.2 5 Norte 17 Noroeste 0 966.8 -- 67
2020-06-18 14:00:00 17 4 Norte 11 Nordeste 0 966.8 -- 63
2020-06-18 13:00:00 15.1 4 Oeste 13 Oeste 0 967 -- 70
2020-06-18 12:00:00 14.7 2 Oeste 13 Oeste 0 966.9 -- 75
2020-06-18 11:00:00 13.9 8 Oeste 15 Oeste 0 966.8 -- 78
2020-06-18 10:00:00 13.8 3 Noroeste 12 Oeste 0 966.6 -- 88
2020-06-18 09:00:00 11.6 3 Oeste 8 Oeste 0 966.3 -- 99
2020-06-18 08:00:00 10.4 0 Calma 3 Sudeste 0 966.1 -- 99
2020-06-18 07:00:00 10.2 0 Calma 3 Sudeste 0 966 -- 99
2020-06-18 06:00:00 10 0 Calma 4 Sudoeste 0 966.2 -- 99
2020-06-18 05:00:00 10.1 0 Calma 10 Noroeste 0 966.3 -- 99
2020-06-18 04:00:00 10.1 0 Calma 4 Sudoeste 0 966.3 -- 99
2020-06-18 03:00:00 10.2 0 Calma 5 Sudoeste 0 966.9 -- 99
2020-06-18 02:00:00 10.5 0 Calma 3 Sudoeste 0 967 -- 99
2020-06-18 01:00:00 11.3 0 Calma 3 Este 0 967.5 -- 99
2020-06-18 00:00:00 11.6 0 Calma 3 Sudeste 0 967.9 -- 99
2020-06-17 23:00:00 11.5 0 Calma 6 Sudeste 0 967.9 -- 99
2020-06-17 22:00:00 11.7 0 Calma 5 Sudeste 0 967.5 -- 98
2020-06-17 21:00:00 12.2 3 Sudeste 7 Sudeste 0 967.5 -- 98
2020-06-17 20:00:00 12.1 5 Sudeste 14 Sudeste 0 967.3 -- 98
2020-06-17 19:00:00 13.2 6 Sudeste 12 Sudeste 0 967.7 -- 97
2020-06-17 18:00:00 13.1 0 Calma 19 Noroeste 0 967.5 -- 90
2020-06-17 17:00:00 15.8 5 Oeste 24 Noroeste 0 967.6 -- 67
2020-06-17 16:00:00 15.4 6 Noroeste 33 Oeste 0 967.8 -- 66
2020-06-17 15:00:00 15.9 8 Oeste 30 Oeste 0 967.7 -- 61
2020-06-17 14:00:00 15.7 11 Oeste 26 Noroeste 0 967.9 -- 63
2020-06-17 13:00:00 16.3 8 Noroeste 23 Oeste 0 967.9 -- 58
2020-06-17 12:00:00 14.7 13 Oeste 28 Oeste 0 968.1 -- 64
2020-06-17 11:00:00 14.1 11 Noroeste 24 Noroeste 0 968.1 -- 73
2020-06-17 10:00:00 13 14 Oeste 23 Oeste 0 968.1 -- 76
2020-06-17 09:00:00 11.2 0 Calma 10 Sudeste 0 968.1 -- 98
2020-06-17 08:00:00 11.1 0 Calma 4 Sudoeste 0 967.8 -- 99
2020-06-17 07:00:00 9.7 0 Calma 4 Sudoeste 0 967.5 -- 99
2020-06-17 06:00:00 10 0 Calma 4 Sudoeste 0 967.5 -- 99
2020-06-17 05:00:00 10.3 0 Calma 3 Este 0 967.7 -- 99
2020-06-17 04:00:00 10.6 0 Calma 5 Noroeste 0 967.9 -- 96
2020-06-17 03:00:00 10.5 0 Calma 9 Noroeste 0 968.6 -- 96
2020-06-17 02:00:00 11 3 Oeste 10 Oeste 0 969.3 -- 96
2020-06-17 01:00:00 11.1 0 Calma 8 Oeste 0 969.6 -- 98
2020-06-17 00:00:00 11.3 2 Sudoeste 13 Oeste 0 969.8 -- 99
2020-06-16 23:00:00 11.4 0 Calma 3 Oeste 0 970 -- 99
2020-06-16 22:00:00 11.6 0 Calma 9 Oeste 0 969.4 -- 97
2020-06-16 21:00:00 12.2 4 Oeste 14 Noroeste 0 969.1 -- 97
2020-06-16 20:00:00 12 6 Oeste 20 Oeste 0 969 -- 98
2020-06-16 19:00:00 11.9 12 Oeste 37 Oeste 0.3 968.9 -- 98
2020-06-16 18:00:00 13.7 9 Noroeste 18 Noroeste 0 968.5 -- 90
2020-06-16 17:00:00 15.1 0 Calma 8 Este 0 968.5 -- 84
2020-06-16 16:00:00 14.8 3 Nordeste 13 Noroeste 0 968.4 -- 82
2020-06-16 15:00:00 14.4 4 Norte 20 Oeste 3.1 968.7 -- 95
2020-06-16 14:00:00 13.7 12 Noroeste 21 Oeste 2.8 969.1 -- 91
2020-06-16 13:00:00 18.7 5 Noroeste 14 Noroeste 0 968.1 -- 52
2020-06-16 12:00:00 16.3 5 Este 12 Este 0 968.4 -- 68
2020-06-16 11:00:00 14.2 2 Este 11 Este 0 969.1 -- 79
2020-06-16 10:00:00 13.4 5 Este 9 Este 0 969.5 -- 89
2020-06-16 09:00:00 12.6 0 Calma 6 Oeste 0 969.8 -- 96
2020-06-16 08:00:00 11.4 0 Calma 5 Noroeste 0 969.8 -- 97
2020-06-16 07:00:00 10.9 0 Calma 6 Sudeste 0 969.7 -- 97
2020-06-16 06:00:00 10.9 3 Este 7 Sudeste 0 969.7 -- 97
2020-06-16 05:00:00 11.3 0 Calma 4 Oeste 0 970.1 -- 94
2020-06-16 04:00:00 11.4 0 Calma 2 Oeste 0 970.6 -- 92
2020-06-16 03:00:00 11.6 0 Calma 2 Sur 0 970.8 -- 92
2020-06-16 02:00:00 11.4 0 Calma 5 Sudoeste 0 971.2 -- 91
2020-06-16 01:00:00 11.7 0 Calma 4 Sudeste 0 971.9 -- 85
2020-06-16 00:00:00 12.7 0 Calma 3 Oeste 0 972.3 -- 80
2020-06-15 23:00:00 13.4 0 Calma 8 Norte 0 972.4 -- 75
2020-06-15 22:00:00 13.7 3 Norte 14 Norte 0 971.9 -- 71
2020-06-15 21:00:00 14.4 4 Norte 19 Noroeste 0 971.8 -- 65
2020-06-15 20:00:00 16.1 7 Norte 19 Norte 0 971.4 -- 58
2020-06-15 19:00:00 16.4 7 Norte 21 Noroeste 0 971.4 -- 56
2020-06-15 18:00:00 18.5 6 Norte 17 Norte 0 971.5 -- 55
2020-06-15 17:00:00 17.9 6 Norte 16 Norte 0 971.4 -- 58
2020-06-15 16:00:00 18.1 5 Norte 19 Norte 0 971.7 -- 59
2020-06-15 15:00:00 18.7 4 Noroeste 15 Noroeste 0 971.5 -- 58
2020-06-15 14:00:00 17.7 3 Norte 13 Noroeste 0 971.9 -- 61
2020-06-15 13:00:00 16 8 Noroeste 16 Norte 0 972 -- 63
2020-06-15 12:00:00 16.9 0 Calma 11 Nordeste 0 971.9 -- 62
2020-06-15 11:00:00 16.1 5 Nordeste 16 Este 0 971.9 -- 66
2020-06-15 10:00:00 14.9 5 Este 11 Este 0 972 -- 75
2020-06-15 09:00:00 12.2 0 Calma 0 Calma 0 972 -- 91
2020-06-15 08:00:00 11.4 0 Calma 0 Calma 0 971.8 -- 92
2020-06-15 07:00:00 10.7 0 Calma 0 Calma 0 971.4 -- 91
2020-06-15 06:00:00 10.8 0 Calma 0 Calma 0 971.2 -- 91
2020-06-15 05:00:00 10.9 0 Calma 2 Sudoeste 0 971.4 -- 91
2020-06-15 04:00:00 10.7 0 Calma 4 Sudoeste 0 971.4 -- 90
2020-06-15 03:00:00 10.6 0 Calma 6 Sudoeste 0 971.8 -- 90
2020-06-15 02:00:00 10.5 0 Calma 7 Sudoeste 0 972 -- 87
2020-06-15 01:00:00 11 0 Calma 3 Sudoeste 0 972.1 -- 82
2020-06-15 00:00:00 12.3 0 Calma 4 Oeste 0 972.2 -- 74